sensor_id;sensor_type;location;lat;lon;timestamp;pressure;altitude;pressure_sealevel;temperature;humidity
70304;BME280;57712;48.752;11.348;2022-10-31T00:01:13;97995.97;;;9.26;100.00
70304;BME280;57712;48.752;11.348;2022-10-31T00:03:39;97995.59;;;9.24;100.00
70304;BME280;57712;48.752;11.348;2022-10-31T00:06:06;97994.47;;;9.18;100.00
70304;BME280;57712;48.752;11.348;2022-10-31T00:08:33;97994.47;;;9.15;100.00
70304;BME280;57712;48.752;11.348;2022-10-31T00:10:59;97999.59;;;9.09;100.00
70304;BME280;57712;48.752;11.348;2022-10-31T00:13:25;97998.44;;;9.07;100.00
70304;BME280;57712;48.752;11.348;2022-10-31T00:15:52;97991.41;;;9.02;100.00
70304;BME280;57712;48.752;11.348;2022-10-31T00:18:18;98002.31;;;9.06;100.00
70304;BME280;57712;48.752;11.348;2022-10-31T00:20:44;97995.72;;;9.00;100.00
70304;BME280;57712;48.752;11.348;2022-10-31T00:23:11;97993.75;;;9.00;100.00
70304;BME280;57712;48.752;11.348;2022-10-31T00:25:39;97998.88;;;8.91;100.00
70304;BME280;57712;48.752;11.348;2022-10-31T00:28:07;97997.31;;;8.90;100.00
70304;BME280;57712;48.752;11.348;2022-10-31T00:30:36;97994.56;;;8.90;100.00
70304;BME280;57712;48.752;11.348;2022-10-31T00:33:03;97998.84;;;8.98;100.00
70304;BME280;57712;48.752;11.348;2022-10-31T00:35:30;98000.03;;;8.90;100.00
70304;BME280;57712;48.752;11.348;2022-10-31T00:37:57;97993.41;;;8.84;100.00
70304;BME280;57712;48.752;11.348;2022-10-31T00:40:23;97991.84;;;8.83;100.00
70304;BME280;57712;48.752;11.348;2022-10-31T00:42:49;98003.97;;;8.82;100.00
70304;BME280;57712;48.752;11.348;2022-10-31T00:45:16;97998.13;;;8.80;100.00
70304;BME280;57712;48.752;11.348;2022-10-31T00:47:42;98002.81;;;8.79;100.00
70304;BME280;57712;48.752;11.348;2022-10-31T00:50:09;98002.03;;;8.79;100.00
70304;BME280;57712;48.752;11.348;2022-10-31T00:52:35;97999.31;;;8.72;100.00
70304;BME280;57712;48.752;11.348;2022-10-31T00:55:02;98008.28;;;8.68;100.00
70304;BME280;57712;48.752;11.348;2022-10-31T00:57:28;98001.66;;;8.70;100.00
70304;BME280;57712;48.752;11.348;2022-10-31T00:59:54;98003.19;;;8.74;100.00
70304;BME280;57712;48.752;11.348;2022-10-31T01:02:21;98005.56;;;8.76;100.00
70304;BME280;57712;48.752;11.348;2022-10-31T01:04:47;98007.88;;;8.74;100.00
70304;BME280;57712;48.752;11.348;2022-10-31T01:07:13;98002.44;;;8.66;100.00
70304;BME280;57712;48.752;11.348;2022-10-31T01:09:40;98008.66;;;8.71;100.00
70304;BME280;57712;48.752;11.348;2022-10-31T01:12:07;98009.09;;;8.65;100.00
70304;BME280;57712;48.752;11.348;2022-10-31T01:14:33;98001.63;;;8.73;100.00
70304;BME280;57712;48.752;11.348;2022-10-31T01:17:00;97993.84;;;8.64;100.00
70304;BME280;57712;48.752;11.348;2022-10-31T01:19:26;97989.19;;;8.61;100.00
70304;BME280;57712;48.752;11.348;2022-10-31T01:21:55;97987.22;;;8.62;100.00
70304;BME280;57712;48.752;11.348;2022-10-31T01:24:22;97997.75;;;8.63;100.00
70304;BME280;57712;48.752;11.348;2022-10-31T01:26:48;98007.13;;;8.62;100.00
70304;BME280;57712;48.752;11.348;2022-10-31T01:29:15;98011.81;;;8.58;100.00
70304;BME280;57712;48.752;11.348;2022-10-31T01:31:41;98007.16;;;8.55;100.00
70304;BME280;57712;48.752;11.348;2022-10-31T01:34:12;98008.28;;;8.61;100.00
70304;BME280;57712;48.752;11.348;2022-10-31T01:36:39;98010.22;;;8.64;100.00
70304;BME280;57712;48.752;11.348;2022-10-31T01:39:09;98015.31;;;8.62;100.00
70304;BME280;57712;48.752;11.348;2022-10-31T01:41:38;98014.56;;;8.58;100.00
70304;BME280;57712;48.752;11.348;2022-10-31T01:46:48;98009.50;;;8.46;100.00
70304;BME280;57712;48.752;11.348;2022-10-31T01:54:58;98021.19;;;8.50;100.00
70304;BME280;57712;48.752;11.348;2022-10-31T01:57:26;98026.66;;;8.50;100.00
70304;BME280;57712;48.752;11.348;2022-10-31T01:59:58;98023.53;;;8.48;100.00
70304;BME280;57712;48.752;11.348;2022-10-31T02:02:27;98022.75;;;8.55;100.00
70304;BME280;57712;48.752;11.348;2022-10-31T02:04:56;98022.38;;;8.49;100.00
70304;BME280;57712;48.752;11.348;2022-10-31T02:07:27;98025.06;;;8.53;100.00
70304;BME280;57712;48.752;11.348;2022-10-31T02:09:56;98016.50;;;8.61;100.00
70304;BME280;57712;48.752;11.348;2022-10-31T02:12:24;98028.97;;;8.30;100.00
70304;BME280;57712;48.752;11.348;2022-10-31T02:14:50;98025.50;;;8.44;100.00
70304;BME280;57712;48.752;11.348;2022-10-31T02:17:17;98021.16;;;8.61;100.00
70304;BME280;57712;48.752;11.348;2022-10-31T02:20:00;98019.22;;;8.61;100.00
70304;BME280;57712;48.752;11.348;2022-10-31T02:31:27;98020.38;;;8.71;100.00
70304;BME280;57712;48.752;11.348;2022-10-31T02:34:14;98021.19;;;8.57;100.00
70304;BME280;57712;48.752;11.348;2022-10-31T02:36:53;98017.28;;;8.65;100.00
70304;BME280;57712;48.752;11.348;2022-10-31T02:39:26;98011.03;;;8.58;100.00
70304;BME280;57712;48.752;11.348;2022-10-31T02:44:49;98024.28;;;8.70;100.00
70304;BME280;57712;48.752;11.348;2022-10-31T02:47:18;98031.69;;;8.77;100.00
70304;BME280;57712;48.752;11.348;2022-10-31T02:49:56;98029.75;;;8.59;100.00
70304;BME280;57712;48.752;11.348;2022-10-31T02:52:26;98021.16;;;8.68;100.00
70304;BME280;57712;48.752;11.348;2022-10-31T02:54:54;98020.41;;;8.60;100.00
70304;BME280;57712;48.752;11.348;2022-10-31T02:57:30;98021.53;;;8.77;100.00
70304;BME280;57712;48.752;11.348;2022-10-31T03:00:05;98024.25;;;8.81;100.00
70304;BME280;57712;48.752;11.348;2022-10-31T03:05:36;98025.81;;;8.82;100.00
70304;BME280;57712;48.752;11.348;2022-10-31T03:08:14;98026.59;;;8.86;100.00
70304;BME280;57712;48.752;11.348;2022-10-31T03:10:57;98020.34;;;8.89;100.00
70304;BME280;57712;48.752;11.348;2022-10-31T03:13:33;98025.44;;;8.87;100.00
70304;BME280;57712;48.752;11.348;2022-10-31T03:19:05;98043.00;;;8.75;100.00
70304;BME280;57712;48.752;11.348;2022-10-31T03:21:36;98049.25;;;8.76;100.00
70304;BME280;57712;48.752;11.348;2022-10-31T03:24:07;98038.72;;;8.71;100.00
70304;BME280;57712;48.752;11.348;2022-10-31T03:26:37;98030.47;;;8.85;100.00
70304;BME280;57712;48.752;11.348;2022-10-31T03:29:09;98025.81;;;8.89;100.00
70304;BME280;57712;48.752;11.348;2022-10-31T03:31:42;98022.69;;;8.90;100.00
70304;BME280;57712;48.752;11.348;2022-10-31T03:34:09;98026.56;;;8.93;100.00
70304;BME280;57712;48.752;11.348;2022-10-31T03:36:38;98023.44;;;8.98;100.00
70304;BME280;57712;48.752;11.348;2022-10-31T03:39:08;98030.47;;;8.99;100.00
70304;BME280;57712;48.752;11.348;2022-10-31T03:41:39;98035.94;;;8.92;100.00
70304;BME280;57712;48.752;11.348;2022-10-31T03:44:11;98027.34;;;9.01;100.00
70304;BME280;57712;48.752;11.348;2022-10-31T03:46:39;98025.41;;;8.90;100.00
70304;BME280;57712;48.752;11.348;2022-10-31T03:49:06;98029.66;;;9.09;100.00
70304;BME280;57712;48.752;11.348;2022-10-31T03:51:39;98029.66;;;9.02;100.00
70304;BME280;57712;48.752;11.348;2022-10-31T03:54:53;98033.97;;;8.92;100.00
70304;BME280;57712;48.752;11.348;2022-10-31T03:57:34;98030.47;;;8.85;100.00
70304;BME280;57712;48.752;11.348;2022-10-31T04:00:08;98029.69;;;8.84;100.00
70304;BME280;57712;48.752;11.348;2022-10-31T04:02:40;98026.59;;;8.89;100.00
70304;BME280;57712;48.752;11.348;2022-10-31T04:05:09;98028.53;;;8.82;100.00
70304;BME280;57712;48.752;11.348;2022-10-31T04:07:39;98024.28;;;8.66;100.00
70304;BME280;57712;48.752;11.348;2022-10-31T04:10:10;98023.53;;;8.55;100.00
70304;BME280;57712;48.752;11.348;2022-10-31T04:12:38;98015.72;;;8.68;100.00
70304;BME280;57712;48.752;11.348;2022-10-31T04:15:06;98016.47;;;8.76;100.00
70304;BME280;57712;48.752;11.348;2022-10-31T04:17:38;98024.25;;;8.84;100.00
70304;BME280;57712;48.752;11.348;2022-10-31T04:20:06;98028.91;;;8.91;100.00
70304;BME280;57712;48.752;11.348;2022-10-31T04:22:32;98026.19;;;8.87;100.00
70304;BME280;57712;48.752;11.348;2022-10-31T04:24:58;98028.16;;;8.87;100.00
70304;BME280;57712;48.752;11.348;2022-10-31T04:27:25;98026.22;;;8.77;100.00
70304;BME280;57712;48.752;11.348;2022-10-31T04:29:51;98018.03;;;8.77;100.00
70304;BME280;57712;48.752;11.348;2022-10-31T04:32:17;98023.09;;;8.82;100.00
70304;BME280;57712;48.752;11.348;2022-10-31T04:34:44;98028.16;;;8.80;100.00
70304;BME280;57712;48.752;11.348;2022-10-31T04:37:10;98021.94;;;8.61;100.00
70304;BME280;57712;48.752;11.348;2022-10-31T04:39:36;98016.47;;;8.76;100.00
70304;BME280;57712;48.752;11.348;2022-10-31T04:42:03;98016.88;;;8.63;100.00
70304;BME280;57712;48.752;11.348;2022-10-31T04:44:29;98027.03;;;8.66;100.00
70304;BME280;57712;48.752;11.348;2022-10-31T04:46:55;98025.44;;;8.73;100.00
70304;BME280;57712;48.752;11.348;2022-10-31T04:49:21;98025.81;;;8.75;100.00
70304;BME280;57712;48.752;11.348;2022-10-31T04:51:48;98029.00;;;8.55;100.00
70304;BME280;57712;48.752;11.348;2022-10-31T04:54:14;98026.22;;;8.77;100.00
70304;BME280;57712;48.752;11.348;2022-10-31T04:56:40;98029.75;;;8.59;100.00
70304;BME280;57712;48.752;11.348;2022-10-31T04:59:07;98029.34;;;8.64;100.00
70304;BME280;57712;48.752;11.348;2022-10-31T05:01:33;98021.16;;;8.79;100.00
70304;BME280;57712;48.752;11.348;2022-10-31T05:03:59;98026.63;;;8.79;100.00
70304;BME280;57712;48.752;11.348;2022-10-31T05:06:26;98021.50;;;8.84;100.00
70304;BME280;57712;48.752;11.348;2022-10-31T05:08:52;98023.88;;;8.79;100.00
70304;BME280;57712;48.752;11.348;2022-10-31T05:11:19;98025.03;;;8.88;100.00
70304;BME280;57712;48.752;11.348;2022-10-31T05:13:45;98025.78;;;8.92;100.00
70304;BME280;57712;48.752;11.348;2022-10-31T05:16:11;98020.72;;;8.98;100.00
70304;BME280;57712;48.752;11.348;2022-10-31T05:18:38;98013.31;;;8.88;100.00
70304;BME280;57712;48.752;11.348;2022-10-31T05:21:04;98014.84;;;9.00;100.00
70304;BME280;57712;48.752;11.348;2022-10-31T05:23:30;98021.06;;;9.11;100.00
70304;BME280;57712;48.752;11.348;2022-10-31T05:25:57;98021.06;;;9.07;100.00
70304;BME280;57712;48.752;11.348;2022-10-31T05:28:23;98014.00;;;9.13;100.00
70304;BME280;57712;48.752;11.348;2022-10-31T05:30:49;98020.63;;;9.19;100.00
70304;BME280;57712;48.752;11.348;2022-10-31T05:33:15;98017.53;;;9.10;100.00
70304;BME280;57712;48.752;11.348;2022-10-31T05:35:42;98029.66;;;9.09;100.00
70304;BME280;57712;48.752;11.348;2022-10-31T05:38:08;98030.38;;;9.17;100.00
70304;BME280;57712;48.752;11.348;2022-10-31T05:40:34;98022.94;;;9.24;100.00
70304;BME280;57712;48.752;11.348;2022-10-31T05:43:01;98032.75;;;9.18;100.00
70304;BME280;57712;48.752;11.348;2022-10-31T05:45:27;98019.84;;;9.19;100.00
70304;BME280;57712;48.752;11.348;2022-10-31T05:47:56;98028.84;;;9.19;100.00
70304;BME280;57712;48.752;11.348;2022-10-31T05:50:24;98028.03;;;9.22;100.00
70304;BME280;57712;48.752;11.348;2022-10-31T05:53:02;98026.84;;;9.23;100.00
70304;BME280;57712;48.752;11.348;2022-10-31T05:55:29;98027.28;;;9.11;100.00
70304;BME280;57712;48.752;11.348;2022-10-31T05:57:55;98031.94;;;9.21;100.00
70304;BME280;57712;48.752;11.348;2022-10-31T06:00:23;98035.06;;;9.16;100.00
70304;BME280;57712;48.752;11.348;2022-10-31T06:02:58;98028.00;;;9.26;100.00
70304;BME280;57712;48.752;11.348;2022-10-31T06:05:24;98035.03;;;9.27;100.00
70304;BME280;57712;48.752;11.348;2022-10-31T06:07:51;98040.53;;;9.20;100.00
70304;BME280;57712;48.752;11.348;2022-10-31T06:10:17;98039.75;;;9.19;100.00
70304;BME280;57712;48.752;11.348;2022-10-31T06:12:45;98035.84;;;9.20;100.00
70304;BME280;57712;48.752;11.348;2022-10-31T06:15:11;98034.69;;;9.18;100.00
70304;BME280;57712;48.752;11.348;2022-10-31T06:17:38;98036.22;;;9.22;100.00
70304;BME280;57712;48.752;11.348;2022-10-31T06:20:05;98042.06;;;9.24;100.00
70304;BME280;57712;48.752;11.348;2022-10-31T06:22:31;98041.31;;;9.20;100.00
70304;BME280;57712;48.752;11.348;2022-10-31T06:24:58;98050.66;;;9.30;100.00
70304;BME280;57712;48.752;11.348;2022-10-31T06:27:25;98046.78;;;9.28;100.00
70304;BME280;57712;48.752;11.348;2022-10-31T06:29:52;98042.47;;;9.26;100.00
70304;BME280;57712;48.752;11.348;2022-10-31T06:32:18;98040.53;;;9.16;100.00
70304;BME280;57712;48.752;11.348;2022-10-31T06:34:44;98045.22;;;9.16;100.00
70304;BME280;57712;48.752;11.348;2022-10-31T06:37:14;98050.34;;;9.07;100.00
70304;BME280;57712;48.752;11.348;2022-10-31T06:39:41;98047.22;;;9.08;100.00
70304;BME280;57712;48.752;11.348;2022-10-31T06:42:07;98040.22;;;9.07;100.00
70304;BME280;57712;48.752;11.348;2022-10-31T06:44:33;98044.50;;;9.08;100.00
70304;BME280;57712;48.752;11.348;2022-10-31T06:47:00;98045.22;;;9.19;100.00
70304;BME280;57712;48.752;11.348;2022-10-31T06:49:26;98038.97;;;9.15;100.00
70304;BME280;57712;48.752;11.348;2022-10-31T06:51:52;98046.03;;;9.09;100.00
70304;BME280;57712;48.752;11.348;2022-10-31T06:54:19;98043.28;;;9.16;100.00
70304;BME280;57712;48.752;11.348;2022-10-31T06:56:46;98049.16;;;9.11;100.00
70304;BME280;57712;48.752;11.348;2022-10-31T06:59:14;98047.91;;;9.26;100.00
70304;BME280;57712;48.752;11.348;2022-10-31T07:01:40;98048.66;;;9.38;100.00
70304;BME280;57712;48.752;11.348;2022-10-31T07:04:10;98053.75;;;9.39;100.00
70304;BME280;57712;48.752;11.348;2022-10-31T07:06:37;98047.53;;;9.32;100.00
70304;BME280;57712;48.752;11.348;2022-10-31T07:09:04;98056.91;;;9.31;100.00
70304;BME280;57712;48.752;11.348;2022-10-31T07:11:30;98060.81;;;9.26;100.00
70304;BME280;57712;48.752;11.348;2022-10-31T07:13:57;98060.44;;;9.24;100.00
70304;BME280;57712;48.752;11.348;2022-10-31T07:16:23;98070.56;;;9.31;100.00
70304;BME280;57712;48.752;11.348;2022-10-31T07:18:49;98068.56;;;9.45;100.00
70304;BME280;57712;48.752;11.348;2022-10-31T07:21:16;98055.28;;;9.44;100.00
70304;BME280;57712;48.752;11.348;2022-10-31T07:23:42;98067.03;;;9.41;100.00
70304;BME280;57712;48.752;11.348;2022-10-31T07:26:09;98071.66;;;9.47;100.00
70304;BME280;57712;48.752;11.348;2022-10-31T07:28:35;98068.44;;;9.74;100.00
70304;BME280;57712;48.752;11.348;2022-10-31T07:31:02;98060.56;;;9.79;100.00
70304;BME280;57712;48.752;11.348;2022-10-31T07:33:28;98059.34;;;9.88;100.00
70304;BME280;57712;48.752;11.348;2022-10-31T07:35:54;98053.94;;;9.80;100.00
70304;BME280;57712;48.752;11.348;2022-10-31T07:38:21;98056.44;;;9.50;100.00
70304;BME280;57712;48.752;11.348;2022-10-31T07:40:51;98048.19;;;9.57;100.00
70304;BME280;57712;48.752;11.348;2022-10-31T07:43:19;98048.53;;;9.66;100.00
70304;BME280;57712;48.752;11.348;2022-10-31T07:45:52;98053.53;;;9.78;100.00
70304;BME280;57712;48.752;11.348;2022-10-31T07:48:19;98041.06;;;9.74;100.00
70304;BME280;57712;48.752;11.348;2022-10-31T07:50:46;98046.03;;;9.90;100.00
70304;BME280;57712;48.752;11.348;2022-10-31T07:53:13;98044.44;;;9.96;100.00
70304;BME280;57712;48.752;11.348;2022-10-31T07:55:40;98042.47;;;10.00;100.00
70304;BME280;57712;48.752;11.348;2022-10-31T07:58:09;98046.31;;;10.13;100.00
70304;BME280;57712;48.752;11.348;2022-10-31T08:00:37;98036.69;;;9.87;100.00
70304;BME280;57712;48.752;11.348;2022-10-31T08:03:06;98045.50;;;10.16;100.00
70304;BME280;57712;48.752;11.348;2022-10-31T08:05:33;98043.19;;;10.11;100.00
70304;BME280;57712;48.752;11.348;2022-10-31T08:08:00;98038.31;;;10.36;100.00
70304;BME280;57712;48.752;11.348;2022-10-31T08:10:27;98032.81;;;10.40;100.00
70304;BME280;57712;48.752;11.348;2022-10-31T08:13:01;98033.16;;;10.46;100.00
70304;BME280;57712;48.752;11.348;2022-10-31T08:15:28;98031.97;;;10.47;100.00
70304;BME280;57712;48.752;11.348;2022-10-31T08:17:54;98035.53;;;10.44;100.00
70304;BME280;57712;48.752;11.348;2022-10-31T08:20:21;98031.03;;;10.64;100.00
70304;BME280;57712;48.752;11.348;2022-10-31T08:23:02;98030.91;;;10.78;100.00
70304;BME280;57712;48.752;11.348;2022-10-31T08:25:30;98027.38;;;10.78;100.00
70304;BME280;57712;48.752;11.348;2022-10-31T08:28:04;98036.31;;;10.85;100.00
70304;BME280;57712;48.752;11.348;2022-10-31T08:30:32;98027.53;;;10.63;100.00
70304;BME280;57712;48.752;11.348;2022-10-31T08:33:03;98031.00;;;10.67;100.00
70304;BME280;57712;48.752;11.348;2022-10-31T08:35:31;98027.38;;;10.78;100.00
70304;BME280;57712;48.752;11.348;2022-10-31T08:37:57;98021.38;;;10.90;100.00
70304;BME280;57712;48.752;11.348;2022-10-31T08:40:26;98031.66;;;10.79;100.00
70304;BME280;57712;48.752;11.348;2022-10-31T08:43:01;98020.44;;;11.04;100.00
70304;BME280;57712;48.752;11.348;2022-10-31T08:45:29;98019.78;;;10.92;100.00
70304;BME280;57712;48.752;11.348;2022-10-31T08:47:59;98023.63;;;10.98;100.00
70304;BME280;57712;48.752;11.348;2022-10-31T08:50:28;98021.31;;;10.93;100.00
70304;BME280;57712;48.752;11.348;2022-10-31T08:53:06;98018.84;;;11.06;100.00
70304;BME280;57712;48.752;11.348;2022-10-31T08:55:34;98020.56;;;11.27;100.00
70304;BME280;57712;48.752;11.348;2022-10-31T08:58:03;98021.28;;;11.31;100.00
70304;BME280;57712;48.752;11.348;2022-10-31T09:00:30;98014.06;;;11.14;100.00
70304;BME280;57712;48.752;11.348;2022-10-31T09:03:04;98018.19;;;11.29;100.00
70304;BME280;57712;48.752;11.348;2022-10-31T09:05:32;98019.13;;;11.49;100.00
70304;BME280;57712;48.752;11.348;2022-10-31T09:08:00;98011.31;;;11.44;100.00
70304;BME280;57712;48.752;11.348;2022-10-31T09:10:28;98008.09;;;11.53;100.00
70304;BME280;57712;48.752;11.348;2022-10-31T09:13:02;98006.38;;;11.63;100.00
70304;BME280;57712;48.752;11.348;2022-10-31T09:15:33;98010.94;;;11.73;100.00
70304;BME280;57712;48.752;11.348;2022-10-31T09:18:00;97993.63;;;11.79;100.00
70304;BME280;57712;48.752;11.348;2022-10-31T09:20:28;97988.09;;;11.83;100.00
70304;BME280;57712;48.752;11.348;2022-10-31T09:23:00;97982.44;;;11.94;100.00
70304;BME280;57712;48.752;11.348;2022-10-31T09:25:27;97991.81;;;11.96;100.00
70304;BME280;57712;48.752;11.348;2022-10-31T09:27:58;97989.53;;;11.91;100.00
70304;BME280;57712;48.752;11.348;2022-10-31T09:30:27;97980.22;;;11.85;100.00
70304;BME280;57712;48.752;11.348;2022-10-31T09:32:58;97998.16;;;12.17;100.00
70304;BME280;57712;48.752;11.348;2022-10-31T09:35:25;97993.59;;;11.83;100.00
70304;BME280;57712;48.752;11.348;2022-10-31T09:38:03;97991.78;;;12.00;100.00
70304;BME280;57712;48.752;11.348;2022-10-31T09:40:54;97994.28;;;12.14;100.00
70304;BME280;57712;48.752;11.348;2022-10-31T09:43:44;97998.13;;;11.93;100.00
70304;BME280;57712;48.752;11.348;2022-10-31T09:51:49;97988.84;;;12.10;100.00
70304;BME280;57712;48.752;11.348;2022-10-31T09:54:24;97986.66;;;11.98;100.00
70304;BME280;57712;48.752;11.348;2022-10-31T09:56:52;97983.91;;;12.25;100.00
70304;BME280;57712;48.752;11.348;2022-10-31T09:59:30;97982.88;;;12.16;100.00
70304;BME280;57712;48.752;11.348;2022-10-31T10:04:51;97975.34;;;11.96;100.00
70304;BME280;57712;48.752;11.348;2022-10-31T10:07:35;97966.94;;;12.30;100.00
70304;BME280;57712;48.752;11.348;2022-10-31T10:10:18;97974.41;;;12.30;100.00
70304;BME280;57712;48.752;11.348;2022-10-31T10:13:14;97966.44;;;12.59;100.00
70304;BME280;57712;48.752;11.348;2022-10-31T10:24:33;97972.72;;;12.79;100.00
70304;BME280;57712;48.752;11.348;2022-10-31T10:27:14;97968.50;;;12.75;100.00
70304;BME280;57712;48.752;11.348;2022-10-31T10:29:58;97969.16;;;12.59;100.00
70304;BME280;57712;48.752;11.348;2022-10-31T10:32:28;97962.56;;;12.56;100.00
70304;BME280;57712;48.752;11.348;2022-10-31T10:35:10;97962.09;;;12.61;100.00
70304;BME280;57712;48.752;11.348;2022-10-31T10:37:42;97961.97;;;12.45;100.00
70304;BME280;57712;48.752;11.348;2022-10-31T10:40:17;97969.13;;;12.39;100.00
70304;BME280;57712;48.752;11.348;2022-10-31T10:43:07;97962.03;;;12.41;100.00
70304;BME280;57712;48.752;11.348;2022-10-31T10:46:05;97964.47;;;12.36;100.00
70304;BME280;57712;48.752;11.348;2022-10-31T10:54:53;97949.00;;;12.46;100.00
70304;BME280;57712;48.752;11.348;2022-10-31T11:00:51;97941.25;;;12.60;100.00
70304;BME280;57712;48.752;11.348;2022-10-31T11:03:19;97929.28;;;12.70;100.00
70304;BME280;57712;48.752;11.348;2022-10-31T11:05:56;97927.91;;;12.62;100.00
70304;BME280;57712;48.752;11.348;2022-10-31T11:08:34;97926.16;;;12.72;100.00
70304;BME280;57712;48.752;11.348;2022-10-31T11:11:03;97939.50;;;12.50;100.00
70304;BME280;57712;48.752;11.348;2022-10-31T11:13:33;97929.13;;;12.38;100.00
70304;BME280;57712;48.752;11.348;2022-10-31T11:16:06;97922.44;;;12.59;100.00
70304;BME280;57712;48.752;11.348;2022-10-31T11:18:42;97911.47;;;12.59;100.00
70304;BME280;57712;48.752;11.348;2022-10-31T11:23:47;97911.81;;;12.81;100.00
70304;BME280;57712;48.752;11.348;2022-10-31T11:26:20;97911.34;;;12.86;100.00
70304;BME280;57712;48.752;11.348;2022-10-31T11:28:56;97904.56;;;12.90;100.00
70304;BME280;57712;48.752;11.348;2022-10-31T11:31:24;97896.72;;;12.89;100.00
70304;BME280;57712;48.752;11.348;2022-10-31T11:33:58;97900.94;;;13.13;100.00
70304;BME280;57712;48.752;11.348;2022-10-31T11:36:32;97895.59;;;13.06;100.00
70304;BME280;57712;48.752;11.348;2022-10-31T11:38:59;97900.88;;;12.97;100.00
70304;BME280;57712;48.752;11.348;2022-10-31T11:41:30;97892.31;;;13.11;100.00
70304;BME280;57712;48.752;11.348;2022-10-31T11:44:03;97883.25;;;13.14;100.00
70304;BME280;57712;48.752;11.348;2022-10-31T11:46:35;97884.16;;;13.08;100.00
70304;BME280;57712;48.752;11.348;2022-10-31T11:49:05;97876.78;;;13.05;100.00
70304;BME280;57712;48.752;11.348;2022-10-31T11:51:37;97873.06;;;13.11;100.00
70304;BME280;57712;48.752;11.348;2022-10-31T11:54:04;97885.44;;;13.03;100.00
70304;BME280;57712;48.752;11.348;2022-10-31T11:56:41;97879.00;;;13.10;100.00
70304;BME280;57712;48.752;11.348;2022-10-31T11:59:24;97871.78;;;13.36;100.00
70304;BME280;57712;48.752;11.348;2022-10-31T12:01:52;97869.19;;;13.28;100.00
70304;BME280;57712;48.752;11.348;2022-10-31T12:04:43;97870.50;;;13.24;100.00
70304;BME280;57712;48.752;11.348;2022-10-31T12:07:12;97864.00;;;13.14;100.00
70304;BME280;57712;48.752;11.348;2022-10-31T12:09:39;97869.34;;;13.21;100.00
70304;BME280;57712;48.752;11.348;2022-10-31T12:12:11;97871.59;;;13.26;100.00
70304;BME280;57712;48.752;11.348;2022-10-31T12:17:21;97862.91;;;13.28;100.00
70304;BME280;57712;48.752;11.348;2022-10-31T12:25:51;97865.22;;;13.29;100.00
70304;BME280;57712;48.752;11.348;2022-10-31T12:29:21;97860.09;;;13.48;100.00
70304;BME280;57712;48.752;11.348;2022-10-31T12:31:42;97861.81;;;13.58;100.00
70304;BME280;57712;48.752;11.348;2022-10-31T12:39:47;97849.97;;;13.45;100.00
70304;BME280;57712;48.752;11.348;2022-10-31T12:42:27;97855.13;;;13.59;100.00
70304;BME280;57712;48.752;11.348;2022-10-31T12:48:04;97839.97;;;13.67;100.00
70304;BME280;57712;48.752;11.348;2022-10-31T12:56:26;97826.19;;;13.83;100.00
70304;BME280;57712;48.752;11.348;2022-10-31T12:59:10;97819.31;;;13.75;100.00
70304;BME280;57712;48.752;11.348;2022-10-31T13:01:47;97809.59;;;13.87;100.00
70304;BME280;57712;48.752;11.348;2022-10-31T13:04:21;97800.31;;;14.10;100.00
70304;BME280;57712;48.752;11.348;2022-10-31T13:06:55;97799.28;;;14.04;100.00
70304;BME280;57712;48.752;11.348;2022-10-31T13:09:42;97790.59;;;14.05;100.00
70304;BME280;57712;48.752;11.348;2022-10-31T13:12:14;97786.22;;;14.08;100.00
70304;BME280;57712;48.752;11.348;2022-10-31T13:14:51;97784.47;;;14.14;100.00
70304;BME280;57712;48.752;11.348;2022-10-31T13:17:31;97780.72;;;14.08;100.00
70304;BME280;57712;48.752;11.348;2022-10-31T13:20:30;97774.38;;;14.65;100.00
70304;BME280;57712;48.752;11.348;2022-10-31T13:23:11;97760.81;;;14.71;100.00
70304;BME280;57712;48.752;11.348;2022-10-31T13:26:08;97768.53;;;14.76;100.00
70304;BME280;57712;48.752;11.348;2022-10-31T13:28:47;97764.47;;;14.93;100.00
70304;BME280;57712;48.752;11.348;2022-10-31T13:31:15;97759.47;;;14.88;100.00
70304;BME280;57712;48.752;11.348;2022-10-31T13:33:46;97762.13;;;14.79;100.00
70304;BME280;57712;48.752;11.348;2022-10-31T13:41:53;97757.66;;;14.43;100.00
70304;BME280;57712;48.752;11.348;2022-10-31T13:44:25;97754.22;;;14.81;100.00
70304;BME280;57712;48.752;11.348;2022-10-31T13:46:54;97752.66;;;14.80;100.00
70304;BME280;57712;48.752;11.348;2022-10-31T13:52:13;97743.44;;;14.45;100.00
70304;BME280;57712;48.752;11.348;2022-10-31T13:54:51;97735.75;;;14.11;100.00
70304;BME280;57712;48.752;11.348;2022-10-31T14:00:04;97733.09;;;14.07;100.00
70304;BME280;57712;48.752;11.348;2022-10-31T14:02:33;97737.00;;;13.94;100.00
70304;BME280;57712;48.752;11.348;2022-10-31T14:05:03;97732.84;;;14.02;100.00
70304;BME280;57712;48.752;11.348;2022-10-31T14:07:42;97747.88;;;13.84;100.00
70304;BME280;57712;48.752;11.348;2022-10-31T14:10:22;97753.16;;;13.63;100.00
70304;BME280;57712;48.752;11.348;2022-10-31T14:12:51;97729.16;;;13.63;100.00
70304;BME280;57712;48.752;11.348;2022-10-31T14:15:23;97725.56;;;13.66;100.00
70304;BME280;57712;48.752;11.348;2022-10-31T14:18:18;97722.31;;;13.55;100.00
70304;BME280;57712;48.752;11.348;2022-10-31T14:20:41;97720.34;;;13.39;100.00
70304;BME280;57712;48.752;11.348;2022-10-31T14:28:41;97708.63;;;13.51;100.00
70304;BME280;57712;48.752;11.348;2022-10-31T14:33:53;97712.19;;;13.36;100.00
70304;BME280;57712;48.752;11.348;2022-10-31T14:36:54;97716.50;;;13.37;100.00
70304;BME280;57712;48.752;11.348;2022-10-31T14:45:28;97716.22;;;13.15;100.00
70304;BME280;57712;48.752;11.348;2022-10-31T14:50:56;97707.25;;;13.43;100.00